NRD1123 LEMG-LEVC
Flight info
| Callsign | NRD1123 |
|---|---|
| Flight time | N/A |
| Altitude | 35000 |
| Route | RIXUR1H RIXUR N851 RESTU N860 NARGO NARGO4D |
| Aircraft | A321/M-SDE2E3FGHIJ1RWXY/C |
Departure
| Time | N/A |
|---|---|
| Airport | Málaga-Costa del Sol Airport (LEMG) |
Arrival
| Time | 2026-04-28 14:44 |
|---|---|
| Airport | Valencia Airport (LEVC) |
| Time | Latitude | Longitude | Altitude | Speed | Heading |
|---|---|---|---|---|---|
| 2026-04-28 14:27 | 38.78210 | -0.96883 | 20997 ft | 375 kts | 27° |
| 2026-04-28 14:27 | 38.80510 | -0.95313 | 20585 ft | 373 kts | 27° |
| 2026-04-28 14:27 | 38.82769 | -0.93770 | 20179 ft | 370 kts | 27° |
| 2026-04-28 14:27 | 38.85035 | -0.92220 | 19772 ft | 368 kts | 27° |
| 2026-04-28 14:28 | 38.87292 | -0.90676 | 19360 ft | 366 kts | 27° |
| 2026-04-28 14:28 | 38.89532 | -0.89140 | 18946 ft | 365 kts | 27° |
| 2026-04-28 14:28 | 38.91794 | -0.87584 | 18538 ft | 363 kts | 27° |
| 2026-04-28 14:28 | 38.93987 | -0.86075 | 18125 ft | 362 kts | 27° |
| 2026-04-28 14:29 | 38.96203 | -0.84552 | 17697 ft | 359 kts | 27° |
| 2026-04-28 14:29 | 38.98397 | -0.83045 | 17300 ft | 356 kts | 27° |
| 2026-04-28 14:29 | 39.00572 | -0.81548 | 16897 ft | 354 kts | 27° |
| 2026-04-28 14:29 | 39.02733 | -0.80059 | 16486 ft | 351 kts | 27° |
| 2026-04-28 14:30 | 39.04884 | -0.78578 | 16111 ft | 350 kts | 27° |
| 2026-04-28 14:30 | 39.07052 | -0.77083 | 15706 ft | 348 kts | 27° |
| 2026-04-28 14:30 | 39.09181 | -0.75617 | 15288 ft | 347 kts | 26° |
| 2026-04-28 14:30 | 39.11278 | -0.74177 | 14907 ft | 345 kts | 26° |
| 2026-04-28 14:31 | 39.13424 | -0.72703 | 14523 ft | 345 kts | 26° |
| 2026-04-28 14:31 | 39.15539 | -0.71246 | 14121 ft | 345 kts | 26° |
| 2026-04-28 14:31 | 39.17666 | -0.69825 | 13700 ft | 343 kts | 20° |
| 2026-04-28 14:31 | 39.19942 | -0.69163 | 13280 ft | 331 kts | 357° |
| 2026-04-28 14:32 | 39.22188 | -0.69610 | 12698 ft | 325 kts | 333° |
| 2026-04-28 14:32 | 39.24088 | -0.71049 | 12410 ft | 311 kts | 313° |
| 2026-04-28 14:32 | 39.25520 | -0.73073 | 12089 ft | 302 kts | 305° |
| 2026-04-28 14:32 | 39.26916 | -0.75088 | 11767 ft | 301 kts | 309° |
| 2026-04-28 14:33 | 39.28388 | -0.76960 | 11453 ft | 300 kts | 313° |
| 2026-04-28 14:33 | 39.29991 | -0.78727 | 11123 ft | 299 kts | 318° |
| 2026-04-28 14:33 | 39.31662 | -0.80319 | 10791 ft | 299 kts | 322° |
| 2026-04-28 14:33 | 39.33414 | -0.81757 | 10470 ft | 298 kts | 326° |
| 2026-04-28 14:34 | 39.37128 | -0.84128 | 10114 ft | 299 kts | 336° |
| 2026-04-28 14:34 | 39.39076 | -0.85065 | 9975 ft | 300 kts | 340° |
| 2026-04-28 14:34 | 39.40407 | -0.85602 | 9620 ft | 304 kts | 343° |
| 2026-04-28 14:35 | 39.43155 | -0.86431 | 9100 ft | 304 kts | 347° |
| 2026-04-28 14:35 | 39.45233 | -0.86828 | 8785 ft | 301 kts | 352° |
| 2026-04-28 14:35 | 39.47309 | -0.87043 | 8349 ft | 297 kts | 356° |
| 2026-04-28 14:35 | 39.49359 | -0.87070 | 7661 ft | 294 kts | 1° |
| 2026-04-28 14:36 | 39.51380 | -0.86912 | 7152 ft | 290 kts | 5° |
| 2026-04-28 14:36 | 39.53388 | -0.86584 | 6748 ft | 292 kts | 9° |
| 2026-04-28 14:36 | 39.55383 | -0.86077 | 6399 ft | 291 kts | 14° |
| 2026-04-28 14:36 | 39.57322 | -0.85408 | 5943 ft | 286 kts | 18° |
| 2026-04-28 14:37 | 39.59178 | -0.84590 | 5398 ft | 279 kts | 24° |
| 2026-04-28 14:37 | 39.60954 | -0.83611 | 5059 ft | 274 kts | 31° |
| 2026-04-28 14:37 | 39.62332 | -0.82012 | 5001 ft | 257 kts | 65° |
| 2026-04-28 14:37 | 39.62685 | -0.79922 | 5034 ft | 230 kts | 102° |
| 2026-04-28 14:38 | 39.61979 | -0.78207 | 4998 ft | 213 kts | 141° |
| 2026-04-28 14:38 | 39.60777 | -0.77187 | 4846 ft | 201 kts | 146° |
| 2026-04-28 14:38 | 39.59758 | -0.76039 | 4612 ft | 189 kts | 130° |
| 2026-04-28 14:38 | 39.59052 | -0.74675 | 4363 ft | 179 kts | 121° |
| 2026-04-28 14:39 | 39.58450 | -0.73225 | 4134 ft | 185 kts | 118° |
| 2026-04-28 14:39 | 39.57901 | -0.71713 | 3876 ft | 184 kts | 117° |
| 2026-04-28 14:39 | 39.57318 | -0.70240 | 3652 ft | 184 kts | 118° |
| 2026-04-28 14:39 | 39.56747 | -0.68761 | 3419 ft | 184 kts | 117° |
| 2026-04-28 14:40 | 39.56181 | -0.67276 | 3156 ft | 183 kts | 116° |
| 2026-04-28 14:40 | 39.55999 | -0.66796 | 3068 ft | 183 kts | 117° |
| 2026-04-28 14:40 | 39.55061 | -0.64320 | 2678 ft | 182 kts | 115° |
| 2026-04-28 14:40 | 39.54504 | -0.62852 | 2404 ft | 181 kts | 115° |
| 2026-04-28 14:41 | 39.53959 | -0.61386 | 2114 ft | 178 kts | 115° |
| 2026-04-28 14:41 | 39.53407 | -0.59945 | 1989 ft | 177 kts | 116° |
| 2026-04-28 14:41 | 39.52864 | -0.58549 | 1774 ft | 167 kts | 115° |
| 2026-04-28 14:41 | 39.52376 | -0.57266 | 1447 ft | 153 kts | 114° |
| 2026-04-28 14:42 | 39.51932 | -0.56069 | 1204 ft | 145 kts | 116° |
| 2026-04-28 14:42 | 39.51497 | -0.54914 | 1050 ft | 141 kts | 116° |
| 2026-04-28 14:42 | 39.51049 | -0.53744 | 897 ft | 146 kts | 115° |
| 2026-04-28 14:42 | 39.50603 | -0.52560 | 685 ft | 145 kts | 115° |
| 2026-04-28 14:43 | 39.50169 | -0.51403 | 536 ft | 143 kts | 115° |
| 2026-04-28 14:43 | 39.49727 | -0.50255 | 323 ft | 142 kts | 114° |
| 2026-04-28 14:43 | 39.49309 | -0.49159 | 225 ft | 123 kts | 114° |
| 2026-04-28 14:43 | 39.48977 | -0.48278 | 208 ft | 90 kts | 116° |
| 2026-04-28 14:44 | 39.48827 | -0.47886 | 212 ft | 60 kts | 116° |
| 2026-04-28 14:44 | 39.48673 | -0.47482 | 201 ft | 31 kts | 116° |
| 2026-04-28 14:44 | 39.48683 | -0.47219 | 193 ft | 30 kts | 52° |
| 2026-04-28 14:44 | 39.48830 | -0.47211 | 191 ft | 18 kts | 337° |
| 2026-04-28 14:45 | 39.48924 | -0.47292 | 198 ft | 14 kts | 300° |
| 2026-04-28 14:45 | 39.48957 | -0.47305 | 194 ft | 4 kts | 7° |
| 2026-04-28 14:45 | 39.48994 | -0.47295 | 201 ft | 6 kts | 14° |
| 2026-04-28 14:45 | 39.49022 | -0.47289 | 191 ft | 0 kts | 11° |